Monsenhor Paulo, Brazil
Current Conditions -  °F | °C
As of 6:00 PM on Sunday 19 Oct 2014 (Local Time) from SBPC Reporting Station
Few Clouds Few Clouds  
Wind Chill: 84°   Ceiling: Unl
Heat Index: 84°   Visibility: 6mi
Dew Point: 59°   Wind: 2mph
Humidity: 42%   Direction: 340°NNW
Pressure: 30.03"   Gusts: NA
Location:  21.76°S, 45.54°W
Report Text: SBPC 192100Z 34002KT 9999 FEW020 29/15 Q1017
Loading
Personal Weather Stations






























Interactive Weather Map
Tropical Storm Tracking
New forecast layout! Learn more

10-Day Weather Forecast

Advertisements
Track Severe Weather on mobile